Погода Кахтана неделю

Юго-Восточная Анатолия, Турция

05 - 11 сентября
  • 05сентября
    Сегодня
    +24°
    +37°
    Ясно и безоблачно
    ВремяПогодаТемператураВлажностьДавлениеВетер, м/сВероятность осадков
    00:00Ясно и безоблачно+26°C38 %696 мм1.5 м/с2 %
    03:00Ясно и безоблачно+25°C31 %696 мм2.6 м/с2 %
    06:00Ясно и безоблачно+25°C33 %697 мм2.8 м/с2 %
    09:00Ясно и безоблачно+30°C28 %699 мм3.0 м/с2 %
    12:00Ясно и безоблачно+34°C22 %699 мм3.2 м/с2 %
    15:00Ясно и безоблачно+36°C17 %699 мм4.6 м/с2 %
    18:00Ясно и безоблачно+35°C18 %698 мм3.3 м/с2 %
    21:00Ясно и безоблачно+29°C25 %697 мм1.2 м/с2 %
  • 06сентября
    Воскресенье
    +25°
    +36°
    Ясно и безоблачно
    ВремяПогодаТемператураВлажностьДавлениеВетер, м/сВероятность осадков
    00:00Ясно и безоблачно+26°C29 %697 мм1.2 м/с2 %
    03:00Ясно и безоблачно+25°C31 %696 мм1.6 м/с2 %
    06:00Ясно и безоблачно+25°C30 %697 мм2.8 м/с2 %
    09:00Ясно и безоблачно+30°C27 %698 мм3.1 м/с2 %
    12:00Ясно и безоблачно+34°C20 %698 мм3.9 м/с2 %
    15:00Ясно и безоблачно+35°C17 %698 мм4.5 м/с6 %
    18:00Ясно и безоблачно+34°C21 %697 мм3.3 м/с6 %
    21:00Ясно и безоблачно+28°C31 %697 мм1.4 м/с2 %
  • 07сентября
    Понедельник
    +20°
    +35°
    Ясно и безоблачно
    ВремяПогодаТемператураВлажностьДавлениеВетер, м/сВероятность осадков
    00:00Ясно и безоблачно+27°C25 %697 мм3.6 м/с2 %
    03:00Ясно и безоблачно+26°C19 %697 мм4.8 м/с2 %
    06:00Ясно и безоблачно+25°C16 %697 мм4.0 м/с2 %
    09:00Ясно и безоблачно+29°C16 %699 мм6.1 м/с2 %
    12:00Ясно и безоблачно+33°C20 %699 мм6.3 м/с2 %
    15:00Ясно и безоблачно+35°C15 %698 мм6.6 м/с2 %
    18:00Ясно и безоблачно+32°C17 %698 мм6.6 м/с2 %
    21:00Ясно и безоблачно+26°C22 %698 мм5.2 м/с2 %
  • 08сентября
    Вторник
    +20°
    +33°
    Ясно и безоблачно
    ВремяПогодаТемператураВлажностьДавлениеВетер, м/сВероятность осадков
    00:00Ясно и безоблачно+22°C31 %697 мм3.5 м/с2 %
    03:00Ясно и безоблачно+21°C31 %697 мм2.5 м/с2 %
    06:00Ясно и безоблачно+21°C26 %697 мм3.6 м/с2 %
    09:00Ясно и безоблачно+24°C20 %698 мм4.5 м/с2 %
    12:00Ясно и безоблачно+30°C13 %698 мм3.4 м/с2 %
    15:00Ясно и безоблачно+33°C10 %697 мм2.5 м/с2 %
    18:00Ясно и безоблачно+31°C12 %696 мм3.6 м/с2 %
    21:00Ясно и безоблачно+26°C17 %696 мм2.4 м/с2 %
  • 09сентября
    Среда
    +21°
    +34°
    Ясно и безоблачно
    ВремяПогодаТемператураВлажностьДавлениеВетер, м/сВероятность осадков
    00:00Ясно и безоблачно+23°C22 %695 мм2.6 м/с2 %
    03:00Ясно и безоблачно+22°C24 %695 мм2.8 м/с2 %
    06:00Ясно и безоблачно+21°C25 %695 мм3.4 м/с2 %
    09:00Ясно и безоблачно+26°C21 %697 мм3.4 м/с2 %
    12:00Ясно и безоблачно+31°C16 %697 мм3.0 м/с2 %
    15:00Ясно и безоблачно+33°C11 %696 мм4.2 м/с2 %
    18:00Ясно и безоблачно+32°C12 %696 мм2.6 м/с2 %
    21:00Ясно и безоблачно+26°C18 %695 мм1.1 м/с2 %
  • 10сентября
    Четверг
    +18°
    +35°
    Ясно и безоблачно
    ВремяПогодаТемператураВлажностьДавлениеВетер, м/сВероятность осадков
    03:00Ясно и безоблачно+22°C18 %695 мм2.0 м/с2 %
    09:00Ясно и безоблачно+27°C21 %698 мм2.8 м/с2 %
    15:00Ясно и безоблачно+34°C12 %698 мм4.7 м/с2 %
    21:00Ясно и безоблачно+27°C16 %698 мм1.5 м/с2 %
  • 11сентября
    Пятница
    +19°
    +36°
    Ясно и безоблачно
    ВремяПогодаТемператураВлажностьДавлениеВетер, м/сВероятность осадков
    03:00Ясно и безоблачно+19°C41 %697 мм1.4 м/с2 %
    09:00Ясно и безоблачно+27°C29 %700 мм1.5 м/с2 %
    15:00Ясно и безоблачно+36°C16 %700 мм2.6 м/с2 %
    21:00Ясно и безоблачно+27°C31 %699 мм2.2 м/с2 %
Мы используем cookies
Соглашаюсь